Terminal Aerodrome Forecast
Issued by NWS Jacksonville, FL

Home | Current Version | Previous Version | Text Only | Print | Product List | Glossary On
Versions: 1 2 3 4 5 6 7 8 9 10 11 12 13 14 15 16 17 18
313
FTUS42 KJAX 262330
TAFSSI
TAF
KSSI 262330Z 2700/2724 04006KT P6SM SCT020 BKN250
     FM270600 VRB05KT P6SM FEW025 SCT250
     FM271200 31005KT P6SM VCSH FEW025 SCT035 BKN045
     FM271500 32006KT P6SM FEW020 SCT250
     FM271700 10008KT P6SM VCTS SCT020CB BKN250
     FM272100 12006KT P6SM FEW035 OVC250=

USA.gov is the U.S. government's official web portal to all federal, state and local government web resources and services.